sensor_id;sensor_type;location;lat;lon;timestamp;temperature;humidity
50013;DHT22;35901;48.694;9.476;2022-10-04T00:00:27;3.70;99.90
50013;DHT22;35901;48.694;9.476;2022-10-04T00:03:00;3.70;99.90
50013;DHT22;35901;48.694;9.476;2022-10-04T00:05:29;3.70;99.90
50013;DHT22;35901;48.694;9.476;2022-10-04T00:07:59;3.70;99.90
50013;DHT22;35901;48.694;9.476;2022-10-04T00:10:32;3.70;99.90
50013;DHT22;35901;48.694;9.476;2022-10-04T00:13:15;3.70;99.90
50013;DHT22;35901;48.694;9.476;2022-10-04T00:15:48;3.70;99.90
50013;DHT22;35901;48.694;9.476;2022-10-04T00:25:51;3.70;99.90
50013;DHT22;35901;48.694;9.476;2022-10-04T00:31:21;3.60;99.90
50013;DHT22;35901;48.694;9.476;2022-10-04T00:36:51;3.50;99.90
50013;DHT22;35901;48.694;9.476;2022-10-04T00:42:03;3.50;99.90
50013;DHT22;35901;48.694;9.476;2022-10-04T00:44:42;3.60;99.90
50013;DHT22;35901;48.694;9.476;2022-10-04T00:47:27;3.60;99.90
50013;DHT22;35901;48.694;9.476;2022-10-04T00:52:34;3.50;99.90
50013;DHT22;35901;48.694;9.476;2022-10-04T00:55:05;3.40;99.90
50013;DHT22;35901;48.694;9.476;2022-10-04T00:57:37;3.50;99.90
50013;DHT22;35901;48.694;9.476;2022-10-04T01:00:10;3.50;99.90
50013;DHT22;35901;48.694;9.476;2022-10-04T01:02:45;3.40;99.90
50013;DHT22;35901;48.694;9.476;2022-10-04T01:05:49;3.30;99.90
50013;DHT22;35901;48.694;9.476;2022-10-04T01:08:50;3.20;99.90
50013;DHT22;35901;48.694;9.476;2022-10-04T01:14:31;3.30;99.90
50013;DHT22;35901;48.694;9.476;2022-10-04T01:17:01;3.20;99.90
50013;DHT22;35901;48.694;9.476;2022-10-04T01:19:30;3.10;99.90
50013;DHT22;35901;48.694;9.476;2022-10-04T01:24:42;3.00;99.90
50013;DHT22;35901;48.694;9.476;2022-10-04T01:27:34;2.90;99.90
50013;DHT22;35901;48.694;9.476;2022-10-04T01:30:03;2.90;99.90
50013;DHT22;35901;48.694;9.476;2022-10-04T01:32:30;2.90;99.90
50013;DHT22;35901;48.694;9.476;2022-10-04T01:34:56;3.00;99.90
50013;DHT22;35901;48.694;9.476;2022-10-04T01:37:22;3.10;99.90
50013;DHT22;35901;48.694;9.476;2022-10-04T01:39:48;3.10;99.90
50013;DHT22;35901;48.694;9.476;2022-10-04T01:42:35;3.10;99.90
50013;DHT22;35901;48.694;9.476;2022-10-04T01:48:00;3.10;99.90
50013;DHT22;35901;48.694;9.476;2022-10-04T01:50:30;3.00;99.90
50013;DHT22;35901;48.694;9.476;2022-10-04T01:53:23;3.00;99.90
50013;DHT22;35901;48.694;9.476;2022-10-04T01:55:53;3.00;99.90
50013;DHT22;35901;48.694;9.476;2022-10-04T01:58:26;2.90;99.90
50013;DHT22;35901;48.694;9.476;2022-10-04T02:01:01;2.80;99.90
50013;DHT22;35901;48.694;9.476;2022-10-04T02:03:35;2.80;99.90
50013;DHT22;35901;48.694;9.476;2022-10-04T02:06:04;2.70;99.90
50013;DHT22;35901;48.694;9.476;2022-10-04T02:08:33;2.70;99.90
50013;DHT22;35901;48.694;9.476;2022-10-04T02:11:01;2.60;99.90
50013;DHT22;35901;48.694;9.476;2022-10-04T02:13:33;2.50;99.90
50013;DHT22;35901;48.694;9.476;2022-10-04T02:16:01;2.50;99.90
50013;DHT22;35901;48.694;9.476;2022-10-04T02:18:29;2.60;99.90
50013;DHT22;35901;48.694;9.476;2022-10-04T02:20:57;2.60;99.90
50013;DHT22;35901;48.694;9.476;2022-10-04T02:23:23;2.70;99.90
50013;DHT22;35901;48.694;9.476;2022-10-04T02:25:50;2.70;99.90
50013;DHT22;35901;48.694;9.476;2022-10-04T02:28:17;2.70;99.90
50013;DHT22;35901;48.694;9.476;2022-10-04T02:30:46;2.70;99.90
50013;DHT22;35901;48.694;9.476;2022-10-04T02:33:37;2.80;99.90
50013;DHT22;35901;48.694;9.476;2022-10-04T02:36:03;2.80;99.90
50013;DHT22;35901;48.694;9.476;2022-10-04T02:38:36;2.60;99.90
50013;DHT22;35901;48.694;9.476;2022-10-04T02:41:33;2.50;99.90
50013;DHT22;35901;48.694;9.476;2022-10-04T02:46:51;2.40;99.90
50013;DHT22;35901;48.694;9.476;2022-10-04T02:49:25;2.40;99.90
50013;DHT22;35901;48.694;9.476;2022-10-04T02:52:02;2.30;99.90
50013;DHT22;35901;48.694;9.476;2022-10-04T02:54:35;2.30;99.90
50013;DHT22;35901;48.694;9.476;2022-10-04T02:57:03;2.30;99.90
50013;DHT22;35901;48.694;9.476;2022-10-04T02:59:30;2.30;99.90
50013;DHT22;35901;48.694;9.476;2022-10-04T03:02:00;2.50;99.90
50013;DHT22;35901;48.694;9.476;2022-10-04T03:04:32;2.60;99.90
50013;DHT22;35901;48.694;9.476;2022-10-04T03:07:04;2.60;99.90
50013;DHT22;35901;48.694;9.476;2022-10-04T03:09:31;2.70;99.90
50013;DHT22;35901;48.694;9.476;2022-10-04T03:11:58;2.70;99.90
50013;DHT22;35901;48.694;9.476;2022-10-04T03:14:26;2.60;99.90
50013;DHT22;35901;48.694;9.476;2022-10-04T03:16:54;2.50;99.90
50013;DHT22;35901;48.694;9.476;2022-10-04T03:19:22;2.40;99.90
50013;DHT22;35901;48.694;9.476;2022-10-04T03:21:52;2.20;99.90
50013;DHT22;35901;48.694;9.476;2022-10-04T03:24:22;2.10;99.90
50013;DHT22;35901;48.694;9.476;2022-10-04T03:26:54;2.00;99.90
50013;DHT22;35901;48.694;9.476;2022-10-04T03:29:23;2.00;99.90
50013;DHT22;35901;48.694;9.476;2022-10-04T03:31:53;2.00;99.90
50013;DHT22;35901;48.694;9.476;2022-10-04T03:34:31;2.00;99.90
50013;DHT22;35901;48.694;9.476;2022-10-04T03:36:59;2.00;99.90
50013;DHT22;35901;48.694;9.476;2022-10-04T03:39:43;2.10;99.90
50013;DHT22;35901;48.694;9.476;2022-10-04T03:42:27;2.10;99.90
50013;DHT22;35901;48.694;9.476;2022-10-04T03:44:58;2.00;99.90
50013;DHT22;35901;48.694;9.476;2022-10-04T03:47:30;2.00;99.90
50013;DHT22;35901;48.694;9.476;2022-10-04T03:50:01;2.10;99.90
50013;DHT22;35901;48.694;9.476;2022-10-04T03:52:31;2.10;99.90
50013;DHT22;35901;48.694;9.476;2022-10-04T03:55:02;2.10;99.90
50013;DHT22;35901;48.694;9.476;2022-10-04T03:57:29;2.20;99.90
50013;DHT22;35901;48.694;9.476;2022-10-04T03:59:56;2.20;99.90
50013;DHT22;35901;48.694;9.476;2022-10-04T04:02:39;2.20;99.90
50013;DHT22;35901;48.694;9.476;2022-10-04T04:07:45;2.20;99.90
50013;DHT22;35901;48.694;9.476;2022-10-04T04:10:16;2.20;99.90
50013;DHT22;35901;48.694;9.476;2022-10-04T04:12:46;2.20;99.90
50013;DHT22;35901;48.694;9.476;2022-10-04T04:15:15;2.20;99.90
50013;DHT22;35901;48.694;9.476;2022-10-04T04:17:50;2.30;99.90
50013;DHT22;35901;48.694;9.476;2022-10-04T04:20:36;2.30;99.90
50013;DHT22;35901;48.694;9.476;2022-10-04T04:23:35;2.40;99.90
50013;DHT22;35901;48.694;9.476;2022-10-04T04:26:52;2.40;99.90
50013;DHT22;35901;48.694;9.476;2022-10-04T04:32:03;2.30;99.90
50013;DHT22;35901;48.694;9.476;2022-10-04T04:34:43;2.20;99.90
50013;DHT22;35901;48.694;9.476;2022-10-04T04:37:13;2.10;99.90
50013;DHT22;35901;48.694;9.476;2022-10-04T04:39:39;2.10;99.90
50013;DHT22;35901;48.694;9.476;2022-10-04T04:44:49;2.20;99.90
50013;DHT22;35901;48.694;9.476;2022-10-04T04:47:32;2.20;99.90
50013;DHT22;35901;48.694;9.476;2022-10-04T04:50:15;2.30;99.90
50013;DHT22;35901;48.694;9.476;2022-10-04T04:58:04;2.60;99.90
50013;DHT22;35901;48.694;9.476;2022-10-04T05:00:35;2.70;99.90
50013;DHT22;35901;48.694;9.476;2022-10-04T05:03:05;2.70;99.90
50013;DHT22;35901;48.694;9.476;2022-10-04T05:05:33;2.70;99.90
50013;DHT22;35901;48.694;9.476;2022-10-04T05:08:23;2.80;99.90
50013;DHT22;35901;48.694;9.476;2022-10-04T05:13:21;2.80;99.90
50013;DHT22;35901;48.694;9.476;2022-10-04T05:15:51;2.80;99.90
50013;DHT22;35901;48.694;9.476;2022-10-04T05:18:29;2.70;99.90
50013;DHT22;35901;48.694;9.476;2022-10-04T05:21:02;2.70;99.90
50013;DHT22;35901;48.694;9.476;2022-10-04T05:23:29;2.70;99.90
50013;DHT22;35901;48.694;9.476;2022-10-04T05:25:54;2.70;99.90
50013;DHT22;35901;48.694;9.476;2022-10-04T05:28:20;2.70;99.90
50013;DHT22;35901;48.694;9.476;2022-10-04T05:31:03;2.70;99.90
50013;DHT22;35901;48.694;9.476;2022-10-04T05:33:45;2.70;99.90
50013;DHT22;35901;48.694;9.476;2022-10-04T05:44:28;2.70;99.90
50013;DHT22;35901;48.694;9.476;2022-10-04T05:47:00;2.70;99.90
50013;DHT22;35901;48.694;9.476;2022-10-04T05:49:33;2.80;99.90
50013;DHT22;35901;48.694;9.476;2022-10-04T05:52:01;2.80;99.90
50013;DHT22;35901;48.694;9.476;2022-10-04T05:54:29;2.80;99.90
50013;DHT22;35901;48.694;9.476;2022-10-04T05:59:50;2.90;99.90
50013;DHT22;35901;48.694;9.476;2022-10-04T06:16:25;3.00;99.90
50013;DHT22;35901;48.694;9.476;2022-10-04T06:21:35;3.10;99.90
50013;DHT22;35901;48.694;9.476;2022-10-04T06:24:10;3.10;99.90
50013;DHT22;35901;48.694;9.476;2022-10-04T06:26:41;3.20;99.90
50013;DHT22;35901;48.694;9.476;2022-10-04T06:29:15;3.20;99.90
50013;DHT22;35901;48.694;9.476;2022-10-04T06:48:04;3.90;99.90
50013;DHT22;35901;48.694;9.476;2022-10-04T06:50:54;4.00;99.90
50013;DHT22;35901;48.694;9.476;2022-10-04T06:59:36;4.20;99.90
50013;DHT22;35901;48.694;9.476;2022-10-04T07:02:14;4.30;99.90
50013;DHT22;35901;48.694;9.476;2022-10-04T07:13:03;4.70;99.90
50013;DHT22;35901;48.694;9.476;2022-10-04T07:15:39;4.90;99.90
50013;DHT22;35901;48.694;9.476;2022-10-04T07:18:13;5.00;99.90
50013;DHT22;35901;48.694;9.476;2022-10-04T07:20:40;5.10;99.90
50013;DHT22;35901;48.694;9.476;2022-10-04T07:23:23;5.20;99.90
50013;DHT22;35901;48.694;9.476;2022-10-04T07:25:54;5.20;99.90
50013;DHT22;35901;48.694;9.476;2022-10-04T07:28:26;5.20;99.90
50013;DHT22;35901;48.694;9.476;2022-10-04T07:31:27;5.30;99.90
50013;DHT22;35901;48.694;9.476;2022-10-04T07:33:58;5.30;99.90
50013;DHT22;35901;48.694;9.476;2022-10-04T07:36:55;5.40;99.90
50013;DHT22;35901;48.694;9.476;2022-10-04T07:41:56;5.30;99.90
50013;DHT22;35901;48.694;9.476;2022-10-04T07:44:37;5.30;99.90
50013;DHT22;35901;48.694;9.476;2022-10-04T07:47:24;5.40;99.90
50013;DHT22;35901;48.694;9.476;2022-10-04T07:49:54;5.40;99.90
50013;DHT22;35901;48.694;9.476;2022-10-04T08:00:27;5.50;99.90
50013;DHT22;35901;48.694;9.476;2022-10-04T08:03:16;5.60;99.90
50013;DHT22;35901;48.694;9.476;2022-10-04T08:05:53;5.80;99.90
50013;DHT22;35901;48.694;9.476;2022-10-04T08:08:59;6.00;99.90
50013;DHT22;35901;48.694;9.476;2022-10-04T08:11:52;6.20;99.90
50013;DHT22;35901;48.694;9.476;2022-10-04T08:14:50;6.30;99.90
50013;DHT22;35901;48.694;9.476;2022-10-04T08:17:39;6.50;99.90
50013;DHT22;35901;48.694;9.476;2022-10-04T08:25:32;7.20;99.90
50013;DHT22;35901;48.694;9.476;2022-10-04T08:28:24;7.40;99.90
50013;DHT22;35901;48.694;9.476;2022-10-04T08:31:56;7.70;99.90
50013;DHT22;35901;48.694;9.476;2022-10-04T08:34:56;7.80;99.90
50013;DHT22;35901;48.694;9.476;2022-10-04T09:06:30;9.40;99.90
50013;DHT22;35901;48.694;9.476;2022-10-04T09:12:01;10.20;99.90
50013;DHT22;35901;48.694;9.476;2022-10-04T09:17:39;10.50;99.90
50013;DHT22;35901;48.694;9.476;2022-10-04T09:20:20;10.60;99.90
50013;DHT22;35901;48.694;9.476;2022-10-04T09:22:53;10.60;99.90
50013;DHT22;35901;48.694;9.476;2022-10-04T09:25:31;10.70;99.90
50013;DHT22;35901;48.694;9.476;2022-10-04T09:28:19;11.10;99.90
50013;DHT22;35901;48.694;9.476;2022-10-04T09:39:02;12.20;99.90
50013;DHT22;35901;48.694;9.476;2022-10-04T09:41:45;12.40;99.90
50013;DHT22;35901;48.694;9.476;2022-10-04T09:50:13;13.30;99.90
50013;DHT22;35901;48.694;9.476;2022-10-04T09:56:03;13.60;99.90
50013;DHT22;35901;48.694;9.476;2022-10-04T10:04:39;14.20;99.90
50013;DHT22;35901;48.694;9.476;2022-10-04T10:10:00;15.00;99.90
50013;DHT22;35901;48.694;9.476;2022-10-04T10:19:25;15.60;99.90
50013;DHT22;35901;48.694;9.476;2022-10-04T10:25:16;16.20;99.90
50013;DHT22;35901;48.694;9.476;2022-10-04T10:27:52;16.50;99.90
50013;DHT22;35901;48.694;9.476;2022-10-04T10:39:47;16.10;99.90
50013;DHT22;35901;48.694;9.476;2022-10-04T10:47:51;16.60;99.90
50013;DHT22;35901;48.694;9.476;2022-10-04T10:50:46;17.00;99.90
50013;DHT22;35901;48.694;9.476;2022-10-04T11:04:26;17.10;99.90
50013;DHT22;35901;48.694;9.476;2022-10-04T11:29:27;17.90;99.90
50013;DHT22;35901;48.694;9.476;2022-10-04T11:56:45;19.50;94.00
50013;DHT22;35901;48.694;9.476;2022-10-04T11:59:19;19.50;93.20
50013;DHT22;35901;48.694;9.476;2022-10-04T12:10:38;18.90;94.70
50013;DHT22;35901;48.694;9.476;2022-10-04T12:24:39;18.90;93.60
50013;DHT22;35901;48.694;9.476;2022-10-04T12:33:00;18.40;94.30
50013;DHT22;35901;48.694;9.476;2022-10-04T12:44:28;19.30;93.30
50013;DHT22;35901;48.694;9.476;2022-10-04T12:50:21;19.10;93.30
50013;DHT22;35901;48.694;9.476;2022-10-04T13:04:13;18.80;94.60
50013;DHT22;35901;48.694;9.476;2022-10-04T13:06:48;19.10;93.90
50013;DHT22;35901;48.694;9.476;2022-10-04T13:15:36;19.30;93.40
50013;DHT22;35901;48.694;9.476;2022-10-04T13:21:38;19.90;91.10
50013;DHT22;35901;48.694;9.476;2022-10-04T13:27:35;19.40;91.70
50013;DHT22;35901;48.694;9.476;2022-10-04T13:30:21;19.30;92.80
50013;DHT22;35901;48.694;9.476;2022-10-04T13:36:10;19.90;92.20
50013;DHT22;35901;48.694;9.476;2022-10-04T13:38:58;20.20;91.70
50013;DHT22;35901;48.694;9.476;2022-10-04T13:41:59;19.70;91.30
50013;DHT22;35901;48.694;9.476;2022-10-04T13:50:35;20.00;91.00
50013;DHT22;35901;48.694;9.476;2022-10-04T14:05:45;20.00;89.20
50013;DHT22;35901;48.694;9.476;2022-10-04T14:11:37;19.20;90.90
50013;DHT22;35901;48.694;9.476;2022-10-04T14:23:19;19.60;90.20
50013;DHT22;35901;48.694;9.476;2022-10-04T14:34:50;19.80;90.00
50013;DHT22;35901;48.694;9.476;2022-10-04T14:52:02;19.00;89.60
50013;DHT22;35901;48.694;9.476;2022-10-04T14:57:19;19.00;92.40
50013;DHT22;35901;48.694;9.476;2022-10-04T15:05:24;19.20;89.70
50013;DHT22;35901;48.694;9.476;2022-10-04T15:11:08;18.50;90.60
50013;DHT22;35901;48.694;9.476;2022-10-04T15:13:52;18.40;91.80
50013;DHT22;35901;48.694;9.476;2022-10-04T15:21:34;18.90;91.40
50013;DHT22;35901;48.694;9.476;2022-10-04T15:36:09;18.50;92.50
50013;DHT22;35901;48.694;9.476;2022-10-04T15:38:53;18.30;92.80
50013;DHT22;35901;48.694;9.476;2022-10-04T15:41:49;18.00;92.50
50013;DHT22;35901;48.694;9.476;2022-10-04T15:44:56;17.90;92.60
50013;DHT22;35901;48.694;9.476;2022-10-04T15:50:36;17.50;93.20
50013;DHT22;35901;48.694;9.476;2022-10-04T15:53:15;17.30;93.40
50013;DHT22;35901;48.694;9.476;2022-10-04T15:56:20;17.20;93.80
50013;DHT22;35901;48.694;9.476;2022-10-04T16:04:40;16.80;94.70
50013;DHT22;35901;48.694;9.476;2022-10-04T16:09:57;16.60;95.00
50013;DHT22;35901;48.694;9.476;2022-10-04T16:15:35;16.40;95.30
50013;DHT22;35901;48.694;9.476;2022-10-04T16:18:16;16.40;95.80
50013;DHT22;35901;48.694;9.476;2022-10-04T16:32:11;15.90;96.90
50013;DHT22;35901;48.694;9.476;2022-10-04T16:39:38;15.50;97.90
50013;DHT22;35901;48.694;9.476;2022-10-04T16:47:33;14.80;99.80
50013;DHT22;35901;48.694;9.476;2022-10-04T16:50:00;14.50;99.90
50013;DHT22;35901;48.694;9.476;2022-10-04T16:57:44;14.10;99.90
50013;DHT22;35901;48.694;9.476;2022-10-04T17:00:35;14.10;99.90
50013;DHT22;35901;48.694;9.476;2022-10-04T17:05:43;13.80;99.90
50013;DHT22;35901;48.694;9.476;2022-10-04T17:11:14;13.10;99.90
50013;DHT22;35901;48.694;9.476;2022-10-04T17:14:00;12.90;99.90
50013;DHT22;35901;48.694;9.476;2022-10-04T17:16:36;12.80;99.90
50013;DHT22;35901;48.694;9.476;2022-10-04T17:19:25;12.70;99.90
50013;DHT22;35901;48.694;9.476;2022-10-04T17:22:22;12.60;99.90
50013;DHT22;35901;48.694;9.476;2022-10-04T17:27:50;12.70;99.90
50013;DHT22;35901;48.694;9.476;2022-10-04T17:36:00;11.90;99.90
50013;DHT22;35901;48.694;9.476;2022-10-04T17:46:45;11.80;99.90
50013;DHT22;35901;48.694;9.476;2022-10-04T17:49:30;11.60;99.90
50013;DHT22;35901;48.694;9.476;2022-10-04T17:52:22;11.40;99.90
50013;DHT22;35901;48.694;9.476;2022-10-04T17:55:17;11.20;99.90
50013;DHT22;35901;48.694;9.476;2022-10-04T17:57:51;11.00;99.90
50013;DHT22;35901;48.694;9.476;2022-10-04T18:00:23;10.90;99.90
50013;DHT22;35901;48.694;9.476;2022-10-04T18:06:10;10.70;99.90
50013;DHT22;35901;48.694;9.476;2022-10-04T18:11:05;10.70;99.90
50013;DHT22;35901;48.694;9.476;2022-10-04T18:14:03;10.70;99.90
50013;DHT22;35901;48.694;9.476;2022-10-04T18:16:46;10.60;99.90
50013;DHT22;35901;48.694;9.476;2022-10-04T18:22:20;10.30;99.90
50013;DHT22;35901;48.694;9.476;2022-10-04T18:25:13;10.20;99.90
50013;DHT22;35901;48.694;9.476;2022-10-04T18:27:52;10.10;99.90
50013;DHT22;35901;48.694;9.476;2022-10-04T18:30:24;10.00;99.90
50013;DHT22;35901;48.694;9.476;2022-10-04T18:32:55;10.00;99.90
50013;DHT22;35901;48.694;9.476;2022-10-04T18:35:30;10.00;99.90
50013;DHT22;35901;48.694;9.476;2022-10-04T18:38:16;10.00;99.90
50013;DHT22;35901;48.694;9.476;2022-10-04T18:43:48;9.70;99.90
50013;DHT22;35901;48.694;9.476;2022-10-04T18:46:16;9.60;99.90
50013;DHT22;35901;48.694;9.476;2022-10-04T18:48:54;9.50;99.90
50013;DHT22;35901;48.694;9.476;2022-10-04T18:51:32;9.40;99.90
50013;DHT22;35901;48.694;9.476;2022-10-04T19:00:10;9.20;99.90
50013;DHT22;35901;48.694;9.476;2022-10-04T19:03:24;9.10;99.90
50013;DHT22;35901;48.694;9.476;2022-10-04T19:06:16;9.10;99.90
50013;DHT22;35901;48.694;9.476;2022-10-04T19:12:03;9.10;99.90
50013;DHT22;35901;48.694;9.476;2022-10-04T19:14:36;9.00;99.90
50013;DHT22;35901;48.694;9.476;2022-10-04T19:17:25;8.90;99.90
50013;DHT22;35901;48.694;9.476;2022-10-04T19:25:35;9.00;99.90
50013;DHT22;35901;48.694;9.476;2022-10-04T19:28:09;9.00;99.90
50013;DHT22;35901;48.694;9.476;2022-10-04T19:30:54;9.10;99.90
50013;DHT22;35901;48.694;9.476;2022-10-04T19:38:53;9.20;99.90
50013;DHT22;35901;48.694;9.476;2022-10-04T19:41:43;9.20;99.90
50013;DHT22;35901;48.694;9.476;2022-10-04T19:47:32;8.90;99.90
50013;DHT22;35901;48.694;9.476;2022-10-04T19:52:56;8.50;99.90
50013;DHT22;35901;48.694;9.476;2022-10-04T19:55:53;8.40;99.90
50013;DHT22;35901;48.694;9.476;2022-10-04T19:58:40;8.30;99.90
50013;DHT22;35901;48.694;9.476;2022-10-04T20:01:17;8.20;99.90
50013;DHT22;35901;48.694;9.476;2022-10-04T20:03:46;8.20;99.90
50013;DHT22;35901;48.694;9.476;2022-10-04T20:06:32;8.20;99.90
50013;DHT22;35901;48.694;9.476;2022-10-04T20:17:59;8.20;99.90
50013;DHT22;35901;48.694;9.476;2022-10-04T20:23:04;8.20;99.90
50013;DHT22;35901;48.694;9.476;2022-10-04T20:30:54;8.00;99.90
50013;DHT22;35901;48.694;9.476;2022-10-04T20:38:59;7.70;99.90
50013;DHT22;35901;48.694;9.476;2022-10-04T20:43:59;7.60;99.90
50013;DHT22;35901;48.694;9.476;2022-10-04T20:46:37;7.50;99.90
50013;DHT22;35901;48.694;9.476;2022-10-04T20:49:04;7.50;99.90
50013;DHT22;35901;48.694;9.476;2022-10-04T20:51:30;7.50;99.90
50013;DHT22;35901;48.694;9.476;2022-10-04T20:54:00;7.40;99.90
50013;DHT22;35901;48.694;9.476;2022-10-04T20:56:32;7.40;99.90
50013;DHT22;35901;48.694;9.476;2022-10-04T20:59:02;7.40;99.90
50013;DHT22;35901;48.694;9.476;2022-10-04T21:01:33;7.30;99.90
50013;DHT22;35901;48.694;9.476;2022-10-04T21:04:22;7.30;99.90
50013;DHT22;35901;48.694;9.476;2022-10-04T21:07:00;7.20;99.90
50013;DHT22;35901;48.694;9.476;2022-10-04T21:09:28;7.10;99.90
50013;DHT22;35901;48.694;9.476;2022-10-04T21:11:56;7.00;99.90
50013;DHT22;35901;48.694;9.476;2022-10-04T21:14:28;7.00;99.90
50013;DHT22;35901;48.694;9.476;2022-10-04T21:16:56;6.90;99.90
50013;DHT22;35901;48.694;9.476;2022-10-04T21:22:07;6.90;99.90
50013;DHT22;35901;48.694;9.476;2022-10-04T21:24:52;7.00;99.90
50013;DHT22;35901;48.694;9.476;2022-10-04T21:27:36;7.00;99.90
50013;DHT22;35901;48.694;9.476;2022-10-04T21:30:12;7.00;99.90
50013;DHT22;35901;48.694;9.476;2022-10-04T21:32:38;7.00;99.90
50013;DHT22;35901;48.694;9.476;2022-10-04T21:35:05;6.90;99.90
50013;DHT22;35901;48.694;9.476;2022-10-04T21:37:32;6.80;99.90
50013;DHT22;35901;48.694;9.476;2022-10-04T21:39:59;6.70;99.90
50013;DHT22;35901;48.694;9.476;2022-10-04T21:42:26;6.70;99.90
50013;DHT22;35901;48.694;9.476;2022-10-04T21:44:52;6.70;99.90
50013;DHT22;35901;48.694;9.476;2022-10-04T21:47:18;6.70;99.90
50013;DHT22;35901;48.694;9.476;2022-10-04T21:49:47;6.90;99.90
50013;DHT22;35901;48.694;9.476;2022-10-04T21:52:13;7.00;99.90
50013;DHT22;35901;48.694;9.476;2022-10-04T21:54:39;7.00;99.90
50013;DHT22;35901;48.694;9.476;2022-10-04T21:57:07;6.90;99.90
50013;DHT22;35901;48.694;9.476;2022-10-04T21:59:32;6.90;99.90
50013;DHT22;35901;48.694;9.476;2022-10-04T22:01:58;6.90;99.90
50013;DHT22;35901;48.694;9.476;2022-10-04T22:04:24;6.90;99.90
50013;DHT22;35901;48.694;9.476;2022-10-04T22:06:49;6.80;99.90
50013;DHT22;35901;48.694;9.476;2022-10-04T22:09:15;6.80;99.90
50013;DHT22;35901;48.694;9.476;2022-10-04T22:11:41;6.90;99.90
50013;DHT22;35901;48.694;9.476;2022-10-04T22:14:06;7.00;99.90
50013;DHT22;35901;48.694;9.476;2022-10-04T22:16:32;6.90;99.90
50013;DHT22;35901;48.694;9.476;2022-10-04T22:18:58;6.70;99.90
50013;DHT22;35901;48.694;9.476;2022-10-04T22:21:24;6.60;99.90
50013;DHT22;35901;48.694;9.476;2022-10-04T22:23:49;6.50;99.90
50013;DHT22;35901;48.694;9.476;2022-10-04T22:26:18;6.30;99.90
50013;DHT22;35901;48.694;9.476;2022-10-04T22:28:52;6.20;99.90
50013;DHT22;35901;48.694;9.476;2022-10-04T22:31:27;6.10;99.90
50013;DHT22;35901;48.694;9.476;2022-10-04T22:33:53;6.10;99.90
50013;DHT22;35901;48.694;9.476;2022-10-04T22:36:35;6.10;99.90
50013;DHT22;35901;48.694;9.476;2022-10-04T22:39:04;6.10;99.90
50013;DHT22;35901;48.694;9.476;2022-10-04T22:41:37;6.10;99.90
50013;DHT22;35901;48.694;9.476;2022-10-04T22:46:38;6.00;99.90
50013;DHT22;35901;48.694;9.476;2022-10-04T22:49:17;6.00;99.90
50013;DHT22;35901;48.694;9.476;2022-10-04T22:51:47;6.00;99.90
50013;DHT22;35901;48.694;9.476;2022-10-04T22:54:19;6.00;99.90
50013;DHT22;35901;48.694;9.476;2022-10-04T22:56:45;6.10;99.90
50013;DHT22;35901;48.694;9.476;2022-10-04T22:59:13;6.20;99.90
50013;DHT22;35901;48.694;9.476;2022-10-04T23:01:41;6.40;99.90
50013;DHT22;35901;48.694;9.476;2022-10-04T23:04:14;6.40;99.90
50013;DHT22;35901;48.694;9.476;2022-10-04T23:06:40;6.30;99.90
50013;DHT22;35901;48.694;9.476;2022-10-04T23:09:06;6.30;99.90
50013;DHT22;35901;48.694;9.476;2022-10-04T23:11:32;6.20;99.90
50013;DHT22;35901;48.694;9.476;2022-10-04T23:13:58;6.20;99.90
50013;DHT22;35901;48.694;9.476;2022-10-04T23:16:24;6.10;99.90
50013;DHT22;35901;48.694;9.476;2022-10-04T23:18:51;6.10;99.90
50013;DHT22;35901;48.694;9.476;2022-10-04T23:21:24;6.10;99.90
50013;DHT22;35901;48.694;9.476;2022-10-04T23:23:51;6.00;99.90
50013;DHT22;35901;48.694;9.476;2022-10-04T23:26:23;5.80;99.90
50013;DHT22;35901;48.694;9.476;2022-10-04T23:28:50;5.60;99.90
50013;DHT22;35901;48.694;9.476;2022-10-04T23:31:22;5.50;99.90
50013;DHT22;35901;48.694;9.476;2022-10-04T23:33:49;5.50;99.90
50013;DHT22;35901;48.694;9.476;2022-10-04T23:36:15;5.70;99.90
50013;DHT22;35901;48.694;9.476;2022-10-04T23:38:55;5.80;99.90
50013;DHT22;35901;48.694;9.476;2022-10-04T23:41:24;6.00;99.90
50013;DHT22;35901;48.694;9.476;2022-10-04T23:43:50;6.10;99.90
50013;DHT22;35901;48.694;9.476;2022-10-04T23:46:18;6.10;99.90
50013;DHT22;35901;48.694;9.476;2022-10-04T23:48:45;6.00;99.90
50013;DHT22;35901;48.694;9.476;2022-10-04T23:51:15;5.90;99.90
50013;DHT22;35901;48.694;9.476;2022-10-04T23:53:42;5.70;99.90
50013;DHT22;35901;48.694;9.476;2022-10-04T23:56:21;5.60;99.90
50013;DHT22;35901;48.694;9.476;2022-10-04T23:58:49;5.60;99.90
